sensor_id;sensor_type;location;lat;lon;timestamp;pressure;altitude;pressure_sealevel;temperature;humidity
21664;BME280;10993;52.510;13.456;2022-09-29T00:00:00;-26400.03;;;8.79;100.00
21664;BME280;10993;52.510;13.456;2022-09-29T00:05:03;-26404.28;;;8.93;100.00
21664;BME280;10993;52.510;13.456;2022-09-29T00:10:04;-26408.53;;;9.07;100.00
21664;BME280;10993;52.510;13.456;2022-09-29T00:15:06;-26407.28;;;9.02;100.00
21664;BME280;10993;52.510;13.456;2022-09-29T00:20:08;-26409.63;;;9.10;100.00
21664;BME280;10993;52.510;13.456;2022-09-29T00:25:08;-26397.22;;;8.69;100.00
21664;BME280;10993;52.510;13.456;2022-09-29T00:30:09;-26399.09;;;8.76;100.00
21664;BME280;10993;52.510;13.456;2022-09-29T00:35:11;-26399.56;;;8.77;100.00
21664;BME280;10993;52.510;13.456;2022-09-29T00:40:11;-26397.06;;;8.69;100.00
21664;BME280;10993;52.510;13.456;2022-09-29T00:45:17;-26390.59;;;8.48;100.00
21664;BME280;10993;52.510;13.456;2022-09-29T00:50:22;-26388.53;;;8.41;100.00
21664;BME280;10993;52.510;13.456;2022-09-29T00:55:27;-26384.63;;;8.28;100.00
21664;BME280;10993;52.510;13.456;2022-09-29T01:00:30;-26378.16;;;8.07;100.00
21664;BME280;10993;52.510;13.456;2022-09-29T01:05:36;-26375.63;;;7.99;100.00
21664;BME280;10993;52.510;13.456;2022-09-29T01:10:38;-26375.31;;;7.98;100.00
21664;BME280;10993;52.510;13.456;2022-09-29T01:15:40;-26370.59;;;7.82;100.00
21664;BME280;10993;52.510;13.456;2022-09-29T01:20:50;-26371.22;;;7.84;100.00
21664;BME280;10993;52.510;13.456;2022-09-29T01:26:11;-26368.06;;;7.74;100.00
21664;BME280;10993;52.510;13.456;2022-09-29T01:31:23;-26366.66;;;7.69;100.00
21664;BME280;10993;52.510;13.456;2022-09-29T01:36:35;-26373.13;;;7.91;100.00
21664;BME280;10993;52.510;13.456;2022-09-29T01:41:42;-26370.59;;;7.82;100.00
21664;BME280;10993;52.510;13.456;2022-09-29T01:46:50;-26380.50;;;8.15;100.00
21664;BME280;10993;52.510;13.456;2022-09-29T01:51:53;-26379.41;;;8.11;100.00
21664;BME280;10993;52.510;13.456;2022-09-29T01:56:58;-26381.00;;;8.16;100.00
21664;BME280;10993;52.510;13.456;2022-09-29T02:02:05;-26376.91;;;8.03;100.00
21664;BME280;10993;52.510;13.456;2022-09-29T02:07:11;-26377.38;;;8.05;100.00
21664;BME280;10993;52.510;13.456;2022-09-29T02:12:16;-26372.63;;;7.89;100.00
21664;BME280;10993;52.510;13.456;2022-09-29T02:17:22;-26369.97;;;7.80;100.00
21664;BME280;10993;52.510;13.456;2022-09-29T02:22:24;-26370.91;;;7.83;100.00
21664;BME280;10993;52.510;13.456;2022-09-29T02:27:25;-26371.69;;;7.86;100.00
21664;BME280;10993;52.510;13.456;2022-09-29T02:32:28;-26372.97;;;7.90;100.00
21664;BME280;10993;52.510;13.456;2022-09-29T02:37:43;-26379.72;;;8.12;100.00
21664;BME280;10993;52.510;13.456;2022-09-29T02:42:55;-26384.44;;;8.28;100.00
21664;BME280;10993;52.510;13.456;2022-09-29T02:48:12;-26392.03;;;8.52;100.00
21664;BME280;10993;52.510;13.456;2022-09-29T02:53:23;-26392.66;;;8.55;100.00
21664;BME280;10993;52.510;13.456;2022-09-29T02:58:28;-26397.38;;;8.70;100.00
21664;BME280;10993;52.510;13.456;2022-09-29T03:03:31;-26400.19;;;8.79;100.00
21664;BME280;10993;52.510;13.456;2022-09-29T03:08:32;-26402.41;;;8.86;100.00
21664;BME280;10993;52.510;13.456;2022-09-29T03:13:32;-26400.50;;;8.80;100.00
21664;BME280;10993;52.510;13.456;2022-09-29T03:18:34;-26400.19;;;8.79;100.00
21664;BME280;10993;52.510;13.456;2022-09-29T03:23:34;-26402.72;;;8.88;100.00
21664;BME280;10993;52.510;13.456;2022-09-29T03:28:35;-26402.41;;;8.86;100.00
21664;BME280;10993;52.510;13.456;2022-09-29T03:33:38;-26401.47;;;8.83;100.00
21664;BME280;10993;52.510;13.456;2022-09-29T03:38:39;-26407.44;;;9.03;100.00
21664;BME280;10993;52.510;13.456;2022-09-29T03:43:39;-26412.94;;;9.21;100.00
21664;BME280;10993;52.510;13.456;2022-09-29T03:48:41;-26411.22;;;9.15;100.00
21664;BME280;10993;52.510;13.456;2022-09-29T03:53:42;-26412.78;;;9.21;100.00
21664;BME280;10993;52.510;13.456;2022-09-29T03:58:42;-26409.00;;;9.08;100.00
21664;BME280;10993;52.510;13.456;2022-09-29T04:03:44;-26410.41;;;9.13;100.00
21664;BME280;10993;52.510;13.456;2022-09-29T04:08:44;-26413.88;;;9.24;100.00
21664;BME280;10993;52.510;13.456;2022-09-29T04:13:44;-26412.78;;;9.21;100.00
21664;BME280;10993;52.510;13.456;2022-09-29T04:18:46;-26415.47;;;9.29;100.00
21664;BME280;10993;52.510;13.456;2022-09-29T04:23:46;-26414.34;;;9.26;100.00
21664;BME280;10993;52.510;13.456;2022-09-29T04:28:48;-26416.56;;;9.33;100.00
21664;BME280;10993;52.510;13.456;2022-09-29T04:33:49;-26417.03;;;9.34;100.00
21664;BME280;10993;52.510;13.456;2022-09-29T04:38:50;-26418.75;;;9.40;100.00
21664;BME280;10993;52.510;13.456;2022-09-29T04:43:50;-26415.16;;;9.28;100.00
21664;BME280;10993;52.510;13.456;2022-09-29T04:48:52;-26413.56;;;9.23;100.00
21664;BME280;10993;52.510;13.456;2022-09-29T04:53:52;-26413.25;;;9.22;100.00
21664;BME280;10993;52.510;13.456;2022-09-29T04:58:53;-26417.19;;;9.35;100.00
21664;BME280;10993;52.510;13.456;2022-09-29T05:03:55;-26417.50;;;9.36;100.00
21664;BME280;10993;52.510;13.456;2022-09-29T05:08:56;-26418.59;;;9.40;100.00
21664;BME280;10993;52.510;13.456;2022-09-29T05:13:56;-26419.53;;;9.43;100.00
21664;BME280;10993;52.510;13.456;2022-09-29T05:18:59;-26412.63;;;9.20;100.00
21664;BME280;10993;52.510;13.456;2022-09-29T05:23:59;-26418.59;;;9.40;100.00
21664;BME280;10993;52.510;13.456;2022-09-29T05:29:00;-26421.91;;;9.50;100.00
21664;BME280;10993;52.510;13.456;2022-09-29T05:34:02;-26428.19;;;9.71;100.00
21664;BME280;10993;52.510;13.456;2022-09-29T05:39:03;-26427.88;;;9.70;100.00
21664;BME280;10993;52.510;13.456;2022-09-29T05:44:03;-26430.38;;;9.78;100.00
21664;BME280;10993;52.510;13.456;2022-09-29T05:49:05;-26431.63;;;9.82;100.00
21664;BME280;10993;52.510;13.456;2022-09-29T05:54:05;-26433.38;;;9.88;100.00
21664;BME280;10993;52.510;13.456;2022-09-29T05:59:05;-26432.91;;;9.86;100.00
21664;BME280;10993;52.510;13.456;2022-09-29T06:04:08;-26431.00;;;9.80;100.00
21664;BME280;10993;52.510;13.456;2022-09-29T06:09:08;-26438.41;;;10.05;100.00
21664;BME280;10993;52.510;13.456;2022-09-29T06:14:08;-26443.56;;;10.22;100.00
21664;BME280;10993;52.510;13.456;2022-09-29T06:19:10;-26448.59;;;10.38;100.00
21664;BME280;10993;52.510;13.456;2022-09-29T06:24:11;-26453.63;;;10.55;100.00
21664;BME280;10993;52.510;13.456;2022-09-29T06:29:11;-26457.41;;;10.67;100.00
21664;BME280;10993;52.510;13.456;2022-09-29T06:34:13;-26453.47;;;10.54;100.00
21664;BME280;10993;52.510;13.456;2022-09-29T06:39:14;-26457.72;;;10.68;100.00
21664;BME280;10993;52.510;13.456;2022-09-29T06:44:14;-26455.66;;;10.61;100.00
21664;BME280;10993;52.510;13.456;2022-09-29T06:49:16;-26456.75;;;10.65;100.00
21664;BME280;10993;52.510;13.456;2022-09-29T06:54:18;-26453.16;;;10.53;100.00
21664;BME280;10993;52.510;13.456;2022-09-29T06:59:22;-26450.03;;;10.43;100.00
21664;BME280;10993;52.510;13.456;2022-09-29T07:04:24;-26438.09;;;10.03;100.00
21664;BME280;10993;52.510;13.456;2022-09-29T07:09:24;-26456.13;;;10.63;100.00
21664;BME280;10993;52.510;13.456;2022-09-29T07:14:25;-26460.38;;;10.77;100.00
21664;BME280;10993;52.510;13.456;2022-09-29T07:19:26;-26462.72;;;10.84;100.00
21664;BME280;10993;52.510;13.456;2022-09-29T07:24:28;-26452.06;;;10.49;100.00
21664;BME280;10993;52.510;13.456;2022-09-29T07:29:28;-26455.50;;;10.61;100.00
21664;BME280;10993;52.510;13.456;2022-09-29T07:34:33;-26452.38;;;10.50;100.00
21664;BME280;10993;52.510;13.456;2022-09-29T07:39:33;-26460.53;;;10.77;100.00
21664;BME280;10993;52.510;13.456;2022-09-29T07:44:34;-26471.81;;;11.14;100.00
21664;BME280;10993;52.510;13.456;2022-09-29T07:49:35;-26480.28;;;11.42;100.00
21664;BME280;10993;52.510;13.456;2022-09-29T07:54:36;-26478.72;;;11.37;100.00
21664;BME280;10993;52.510;13.456;2022-09-29T07:59:36;-26476.84;;;11.31;100.00
21664;BME280;10993;52.510;13.456;2022-09-29T08:04:38;-26474.47;;;11.23;100.00
21664;BME280;10993;52.510;13.456;2022-09-29T08:09:38;-26484.19;;;11.55;100.00
21664;BME280;10993;52.510;13.456;2022-09-29T08:14:39;-26488.75;;;11.70;100.00
21664;BME280;10993;52.510;13.456;2022-09-29T08:19:41;-26492.03;;;11.81;100.00
21664;BME280;10993;52.510;13.456;2022-09-29T08:24:41;-26496.09;;;11.94;100.00
21664;BME280;10993;52.510;13.456;2022-09-29T08:29:42;-26512.53;;;12.48;99.96
21664;BME280;10993;52.510;13.456;2022-09-29T08:34:43;-26521.75;;;12.79;98.61
21664;BME280;10993;52.510;13.456;2022-09-29T08:39:44;-26543.19;;;13.49;93.88
21664;BME280;10993;52.510;13.456;2022-09-29T08:44:47;-26564.88;;;14.21;87.97
21664;BME280;10993;52.510;13.456;2022-09-29T08:49:54;-26567.38;;;14.29;86.30
21664;BME280;10993;52.510;13.456;2022-09-29T08:55:00;-26581.25;;;14.75;82.93
21664;BME280;10993;52.510;13.456;2022-09-29T09:00:03;-26600.09;;;15.38;77.12
21664;BME280;10993;52.510;13.456;2022-09-29T09:05:17;-26622.97;;;16.13;75.94
21664;BME280;10993;52.510;13.456;2022-09-29T09:10:28;-26627.31;;;16.28;72.75
21664;BME280;10993;52.510;13.456;2022-09-29T09:15:52;-26641.00;;;16.73;70.59
21664;BME280;10993;52.510;13.456;2022-09-29T09:21:00;-26675.91;;;17.89;67.52
21664;BME280;10993;52.510;13.456;2022-09-29T09:26:04;-26692.34;;;18.44;60.82
21664;BME280;10993;52.510;13.456;2022-09-29T09:31:08;-26708.28;;;18.97;57.65
21664;BME280;10993;52.510;13.456;2022-09-29T09:36:15;-26700.25;;;18.70;57.71
21664;BME280;10993;52.510;13.456;2022-09-29T09:41:20;-26685.69;;;18.22;61.27
21664;BME280;10993;52.510;13.456;2022-09-29T09:46:24;-26713.72;;;19.15;56.80
21664;BME280;10993;52.510;13.456;2022-09-29T09:51:44;-26755.88;;;20.56;51.53
21664;BME280;10993;52.510;13.456;2022-09-29T09:57:03;-26798.88;;;21.99;45.97
21664;BME280;10993;52.510;13.456;2022-09-29T10:02:15;-26813.81;;;22.49;43.17
21664;BME280;10993;52.510;13.456;2022-09-29T10:07:19;-26806.13;;;22.24;44.68
21664;BME280;10993;52.510;13.456;2022-09-29T10:12:21;-26796.56;;;21.92;45.49
21664;BME280;10993;52.510;13.456;2022-09-29T10:17:25;-26807.66;;;22.29;43.33
21664;BME280;10993;52.510;13.456;2022-09-29T10:22:29;-26807.81;;;22.29;42.52
21664;BME280;10993;52.510;13.456;2022-09-29T10:27:30;-26806.25;;;22.24;42.10
21664;BME280;10993;52.510;13.456;2022-09-29T10:32:31;-26795.19;;;21.87;43.41
21664;BME280;10993;52.510;13.456;2022-09-29T10:37:40;-26792.88;;;21.79;42.42
21664;BME280;10993;52.510;13.456;2022-09-29T10:42:42;-26794.41;;;21.84;40.77
21664;BME280;10993;52.510;13.456;2022-09-29T10:47:46;-26748.63;;;20.31;47.27
21664;BME280;10993;52.510;13.456;2022-09-29T10:52:52;-26762.69;;;20.78;44.33
21664;BME280;10993;52.510;13.456;2022-09-29T10:57:54;-26757.13;;;20.60;44.51
21664;BME280;10993;52.510;13.456;2022-09-29T11:03:03;-26783.47;;;21.48;42.40
21664;BME280;10993;52.510;13.456;2022-09-29T11:08:10;-26801.34;;;22.08;42.07
21664;BME280;10993;52.510;13.456;2022-09-29T11:13:34;-26780.72;;;21.39;41.39
21664;BME280;10993;52.510;13.456;2022-09-29T11:18:37;-26720.34;;;19.37;46.89
21664;BME280;10993;52.510;13.456;2022-09-29T11:23:43;-26698.69;;;18.65;48.20
21664;BME280;10993;52.510;13.456;2022-09-29T11:29:06;-26716.66;;;19.25;48.10
21664;BME280;10993;52.510;13.456;2022-09-29T11:34:44;-26686.63;;;18.25;49.02
21664;BME280;10993;52.510;13.456;2022-09-29T11:39:57;-26675.13;;;17.86;52.04
21664;BME280;10993;52.510;13.456;2022-09-29T11:45:01;-26662.72;;;17.45;54.58
21664;BME280;10993;52.510;13.456;2022-09-29T11:50:14;-26641.63;;;16.75;56.61
21664;BME280;10993;52.510;13.456;2022-09-29T11:55:27;-26633.22;;;16.47;60.07
21664;BME280;10993;52.510;13.456;2022-09-29T12:00:40;-26627.16;;;16.27;60.37
21664;BME280;10993;52.510;13.456;2022-09-29T12:05:51;-26642.56;;;16.78;60.02
21664;BME280;10993;52.510;13.456;2022-09-29T12:10:57;-26630.44;;;16.38;59.61
21664;BME280;10993;52.510;13.456;2022-09-29T12:16:01;-26608.34;;;15.65;62.10
21664;BME280;10993;52.510;13.456;2022-09-29T12:21:08;-26598.06;;;15.31;63.97
21664;BME280;10993;52.510;13.456;2022-09-29T12:26:14;-26594.66;;;15.19;65.14
21664;BME280;10993;52.510;13.456;2022-09-29T12:31:20;-26606.47;;;15.59;61.62
21664;BME280;10993;52.510;13.456;2022-09-29T12:36:37;-26609.44;;;15.68;60.10
21664;BME280;10993;52.510;13.456;2022-09-29T12:41:55;-26630.28;;;16.38;59.55
21664;BME280;10993;52.510;13.456;2022-09-29T12:47:02;-26655.59;;;17.22;56.76
21664;BME280;10993;52.510;13.456;2022-09-29T12:52:09;-26649.09;;;17.00;54.90
21664;BME280;10993;52.510;13.456;2022-09-29T12:57:17;-26630.13;;;16.37;57.51
21664;BME280;10993;52.510;13.456;2022-09-29T13:02:37;-26628.88;;;16.33;59.31
21664;BME280;10993;52.510;13.456;2022-09-29T13:08:18;-26619.41;;;16.01;61.25
21664;BME280;10993;52.510;13.456;2022-09-29T13:13:45;-26623.91;;;16.16;60.03
21664;BME280;10993;52.510;13.456;2022-09-29T13:24:29;-26610.38;;;15.72;59.96
21664;BME280;10993;52.510;13.456;2022-09-29T13:29:39;-26594.97;;;15.20;61.44
21664;BME280;10993;52.510;13.456;2022-09-29T13:34:46;-26606.94;;;15.60;62.03
21664;BME280;10993;52.510;13.456;2022-09-29T13:39:55;-26618.00;;;15.97;58.10
21664;BME280;10993;52.510;13.456;2022-09-29T13:45:36;-26613.97;;;15.83;55.56
21664;BME280;10993;52.510;13.456;2022-09-29T13:50:41;-26631.38;;;16.41;54.48
21664;BME280;10993;52.510;13.456;2022-09-29T13:55:49;-26647.53;;;16.95;53.95
21664;BME280;10993;52.510;13.456;2022-09-29T14:00:52;-26663.03;;;17.46;51.72
21664;BME280;10993;52.510;13.456;2022-09-29T14:05:55;-26648.31;;;16.97;49.18
21664;BME280;10993;52.510;13.456;2022-09-29T14:16:35;-26652.81;;;17.12;50.42
21664;BME280;10993;52.510;13.456;2022-09-29T14:21:48;-26642.72;;;16.79;50.45
21664;BME280;10993;52.510;13.456;2022-09-29T14:26:50;-26613.97;;;15.83;50.50
21664;BME280;10993;52.510;13.456;2022-09-29T14:31:55;-26596.53;;;15.26;52.71
21664;BME280;10993;52.510;13.456;2022-09-29T14:36:57;-26587.31;;;14.95;54.36
21664;BME280;10993;52.510;13.456;2022-09-29T14:41:59;-26581.72;;;14.77;53.72
21664;BME280;10993;52.510;13.456;2022-09-29T14:47:15;-26587.00;;;14.94;53.08
21664;BME280;10993;52.510;13.456;2022-09-29T14:52:47;-26589.97;;;15.04;53.94
21664;BME280;10993;52.510;13.456;2022-09-29T14:57:59;-26589.66;;;15.03;54.07
21664;BME280;10993;52.510;13.456;2022-09-29T15:03:06;-26591.69;;;15.10;52.36
21664;BME280;10993;52.510;13.456;2022-09-29T15:08:27;-26592.47;;;15.12;53.05
21664;BME280;10993;52.510;13.456;2022-09-29T15:13:28;-26592.16;;;15.11;53.55
21664;BME280;10993;52.510;13.456;2022-09-29T15:18:54;-26593.09;;;15.14;53.35
21664;BME280;10993;52.510;13.456;2022-09-29T15:24:10;-26589.50;;;15.02;53.59
21664;BME280;10993;52.510;13.456;2022-09-29T15:29:16;-26586.88;;;14.94;57.13
21664;BME280;10993;52.510;13.456;2022-09-29T15:34:49;-26583.75;;;14.83;57.43
21664;BME280;10993;52.510;13.456;2022-09-29T15:39:51;-26587.50;;;14.96;57.13
21664;BME280;10993;52.510;13.456;2022-09-29T15:44:58;-26577.81;;;14.64;56.92
21664;BME280;10993;52.510;13.456;2022-09-29T15:50:03;-26569.72;;;14.37;58.44
21664;BME280;10993;52.510;13.456;2022-09-29T15:55:14;-26568.16;;;14.32;60.77
21664;BME280;10993;52.510;13.456;2022-09-29T16:00:41;-26563.31;;;14.16;60.34
21664;BME280;10993;52.510;13.456;2022-09-29T16:05:55;-26560.97;;;14.08;61.03
21664;BME280;10993;52.510;13.456;2022-09-29T16:10:59;-26553.63;;;13.84;63.11
21664;BME280;10993;52.510;13.456;2022-09-29T16:16:03;-26545.38;;;13.57;64.41
21664;BME280;10993;52.510;13.456;2022-09-29T16:21:08;-26536.47;;;13.27;65.05
21664;BME280;10993;52.510;13.456;2022-09-29T16:26:20;-26538.81;;;13.35;67.14
21664;BME280;10993;52.510;13.456;2022-09-29T16:31:32;-26533.19;;;13.16;71.68
21664;BME280;10993;52.510;13.456;2022-09-29T16:36:34;-26528.19;;;13.00;77.07
21664;BME280;10993;52.510;13.456;2022-09-29T16:41:36;-26517.84;;;12.66;79.00
21664;BME280;10993;52.510;13.456;2022-09-29T16:46:47;-26518.66;;;12.68;81.24
21664;BME280;10993;52.510;13.456;2022-09-29T16:51:51;-26511.28;;;12.44;83.58
21664;BME280;10993;52.510;13.456;2022-09-29T16:57:18;-26510.34;;;12.41;86.68
21664;BME280;10993;52.510;13.456;2022-09-29T17:02:21;-26503.63;;;12.19;90.54
21664;BME280;10993;52.510;13.456;2022-09-29T17:07:24;-26499.72;;;12.06;92.14
21664;BME280;10993;52.510;13.456;2022-09-29T17:12:26;-26494.84;;;11.90;93.40
21664;BME280;10993;52.510;13.456;2022-09-29T17:17:27;-26492.50;;;11.82;94.85
21664;BME280;10993;52.510;13.456;2022-09-29T17:22:31;-26490.31;;;11.75;95.47
21664;BME280;10993;52.510;13.456;2022-09-29T17:27:33;-26488.13;;;11.68;96.35
21664;BME280;10993;52.510;13.456;2022-09-29T17:32:54;-26484.03;;;11.55;97.14
21664;BME280;10993;52.510;13.456;2022-09-29T17:37:56;-26483.72;;;11.53;97.47
21664;BME280;10993;52.510;13.456;2022-09-29T17:42:56;-26481.84;;;11.47;97.96
21664;BME280;10993;52.510;13.456;2022-09-29T17:48:00;-26477.47;;;11.33;99.55
21664;BME280;10993;52.510;13.456;2022-09-29T17:53:02;-26473.84;;;11.21;100.00
21664;BME280;10993;52.510;13.456;2022-09-29T17:58:03;-26464.94;;;10.92;100.00
21664;BME280;10993;52.510;13.456;2022-09-29T18:03:05;-26467.44;;;11.00;100.00
21664;BME280;10993;52.510;13.456;2022-09-29T18:08:13;-26462.88;;;10.85;100.00
21664;BME280;10993;52.510;13.456;2022-09-29T18:13:13;-26453.78;;;10.55;100.00
21664;BME280;10993;52.510;13.456;2022-09-29T18:18:16;-26449.72;;;10.42;100.00
21664;BME280;10993;52.510;13.456;2022-09-29T18:23:18;-26449.22;;;10.40;100.00
21664;BME280;10993;52.510;13.456;2022-09-29T18:28:19;-26448.28;;;10.37;100.00
21664;BME280;10993;52.510;13.456;2022-09-29T18:33:20;-26447.50;;;10.34;100.00
21664;BME280;10993;52.510;13.456;2022-09-29T18:38:22;-26440.28;;;10.11;100.00
21664;BME280;10993;52.510;13.456;2022-09-29T18:43:23;-26443.72;;;10.22;100.00
21664;BME280;10993;52.510;13.456;2022-09-29T18:48:25;-26449.38;;;10.41;100.00
21664;BME280;10993;52.510;13.456;2022-09-29T18:53:26;-26447.34;;;10.34;100.00
21664;BME280;10993;52.510;13.456;2022-09-29T18:58:27;-26449.06;;;10.40;100.00
21664;BME280;10993;52.510;13.456;2022-09-29T19:03:28;-26446.72;;;10.32;100.00
21664;BME280;10993;52.510;13.456;2022-09-29T19:08:30;-26443.72;;;10.22;100.00
21664;BME280;10993;52.510;13.456;2022-09-29T19:13:32;-26440.13;;;10.10;100.00
21664;BME280;10993;52.510;13.456;2022-09-29T19:18:33;-26438.25;;;10.04;100.00
21664;BME280;10993;52.510;13.456;2022-09-29T19:23:34;-26437.28;;;10.01;100.00
21664;BME280;10993;52.510;13.456;2022-09-29T19:28:35;-26439.97;;;10.10;100.00
21664;BME280;10993;52.510;13.456;2022-09-29T19:33:37;-26428.50;;;9.72;100.00
21664;BME280;10993;52.510;13.456;2022-09-29T19:38:39;-26429.91;;;9.77;100.00
21664;BME280;10993;52.510;13.456;2022-09-29T19:43:40;-26425.69;;;9.63;100.00
21664;BME280;10993;52.510;13.456;2022-09-29T19:48:41;-26432.13;;;9.84;100.00
21664;BME280;10993;52.510;13.456;2022-09-29T19:53:43;-26428.81;;;9.73;100.00
21664;BME280;10993;52.510;13.456;2022-09-29T19:58:44;-26425.03;;;9.61;100.00
21664;BME280;10993;52.510;13.456;2022-09-29T20:03:44;-26425.03;;;9.61;100.00
21664;BME280;10993;52.510;13.456;2022-09-29T20:08:48;-26424.72;;;9.60;100.00
21664;BME280;10993;52.510;13.456;2022-09-29T20:13:48;-26423.16;;;9.55;100.00
21664;BME280;10993;52.510;13.456;2022-09-29T20:18:49;-26418.44;;;9.39;100.00
21664;BME280;10993;52.510;13.456;2022-09-29T20:23:51;-26421.28;;;9.48;100.00
21664;BME280;10993;52.510;13.456;2022-09-29T20:28:52;-26419.69;;;9.43;100.00
21664;BME280;10993;52.510;13.456;2022-09-29T20:33:52;-26419.53;;;9.43;100.00
21664;BME280;10993;52.510;13.456;2022-09-29T20:38:54;-26418.44;;;9.39;100.00
21664;BME280;10993;52.510;13.456;2022-09-29T20:43:55;-26416.56;;;9.33;100.00
21664;BME280;10993;52.510;13.456;2022-09-29T20:48:57;-26411.84;;;9.17;100.00
21664;BME280;10993;52.510;13.456;2022-09-29T20:54:00;-26407.44;;;9.03;100.00
21664;BME280;10993;52.510;13.456;2022-09-29T20:59:01;-26412.31;;;9.19;100.00
21664;BME280;10993;52.510;13.456;2022-09-29T21:04:03;-26411.84;;;9.17;100.00
21664;BME280;10993;52.510;13.456;2022-09-29T21:09:10;-26405.22;;;8.96;100.00
21664;BME280;10993;52.510;13.456;2022-09-29T21:14:12;-26400.81;;;8.81;100.00
21664;BME280;10993;52.510;13.456;2022-09-29T21:19:16;-26400.81;;;8.81;100.00
21664;BME280;10993;52.510;13.456;2022-09-29T21:24:17;-26402.72;;;8.88;100.00
21664;BME280;10993;52.510;13.456;2022-09-29T21:29:18;-26397.38;;;8.70;100.00
21664;BME280;10993;52.510;13.456;2022-09-29T21:34:18;-26402.56;;;8.87;100.00
21664;BME280;10993;52.510;13.456;2022-09-29T21:39:21;-26405.56;;;8.97;100.00
21664;BME280;10993;52.510;13.456;2022-09-29T21:44:21;-26406.34;;;8.99;100.00
21664;BME280;10993;52.510;13.456;2022-09-29T21:49:23;-26406.50;;;9.00;100.00
21664;BME280;10993;52.510;13.456;2022-09-29T21:54:24;-26409.16;;;9.09;100.00
21664;BME280;10993;52.510;13.456;2022-09-29T21:59:25;-26404.59;;;8.94;100.00
21664;BME280;10993;52.510;13.456;2022-09-29T22:04:26;-26400.50;;;8.80;100.00
21664;BME280;10993;52.510;13.456;2022-09-29T22:09:28;-26398.16;;;8.73;100.00
21664;BME280;10993;52.510;13.456;2022-09-29T22:14:28;-26401.00;;;8.82;100.00
21664;BME280;10993;52.510;13.456;2022-09-29T22:19:30;-26399.09;;;8.76;100.00
21664;BME280;10993;52.510;13.456;2022-09-29T22:24:32;-26397.38;;;8.70;100.00
21664;BME280;10993;52.510;13.456;2022-09-29T22:29:32;-26395.16;;;8.63;100.00
21664;BME280;10993;52.510;13.456;2022-09-29T22:34:33;-26393.44;;;8.57;100.00
21664;BME280;10993;52.510;13.456;2022-09-29T22:39:35;-26389.19;;;8.43;100.00
21664;BME280;10993;52.510;13.456;2022-09-29T22:44:36;-26389.19;;;8.43;100.00
21664;BME280;10993;52.510;13.456;2022-09-29T22:49:37;-26383.19;;;8.24;100.00
21664;BME280;10993;52.510;13.456;2022-09-29T22:54:38;-26389.81;;;8.45;100.00
21664;BME280;10993;52.510;13.456;2022-09-29T22:59:39;-26383.50;;;8.25;100.00
21664;BME280;10993;52.510;13.456;2022-09-29T23:04:39;-26386.50;;;8.34;100.00
21664;BME280;10993;52.510;13.456;2022-09-29T23:09:41;-26384.44;;;8.28;100.00
21664;BME280;10993;52.510;13.456;2022-09-29T23:14:41;-26379.41;;;8.11;100.00
21664;BME280;10993;52.510;13.456;2022-09-29T23:19:42;-26380.84;;;8.16;100.00
21664;BME280;10993;52.510;13.456;2022-09-29T23:24:44;-26374.84;;;7.96;100.00
21664;BME280;10993;52.510;13.456;2022-09-29T23:29:45;-26375.94;;;8.00;100.00
21664;BME280;10993;52.510;13.456;2022-09-29T23:34:45;-26368.06;;;7.74;100.00
21664;BME280;10993;52.510;13.456;2022-09-29T23:39:47;-26372.47;;;7.89;100.00
21664;BME280;10993;52.510;13.456;2022-09-29T23:44:47;-26371.84;;;7.86;100.00
21664;BME280;10993;52.510;13.456;2022-09-29T23:49:48;-26372.31;;;7.88;100.00
21664;BME280;10993;52.510;13.456;2022-09-29T23:54:49;-26373.28;;;7.91;100.00
21664;BME280;10993;52.510;13.456;2022-09-29T23:59:50;-26367.13;;;7.71;100.00
